Phelps, Wisconsin
Current Conditions -  °F | °C
As of 4:55 AM on Sunday 21 Dec 2014 (Local Time) from KLNL Reporting Station
Haze Haze  
Wind Chill: 20°   Ceiling: 500
Heat Index: 28°   Visibility: 4mi
Dew Point: 27°   Wind: 7mph
Humidity: 96%   Direction: 170°S
Pressure: 30.03"   Gusts: NA
Location:  46.06°N, 89.09°W
Report Text: KLNL 211055Z AUTO 17006KT 4SM BR OVC005 M02/M03 A3003 RMK AO2 T10251030
Loading
Personal Weather Stations






























Interactive Weather Map New forecast layout! Learn more

10-Day Weather Forecast

Advertisements
Track Severe Weather on mobile